Aeroporto :
LOGIN :

Iscrizione | Disclaimer

   EN    FR    IT 

 










Sommario :    VFR   VFR Marginale   IFR   IFR Intensivo   IFR Molto Intensivo
Visibilità : 
Base nubi : 
>= 8 km
>= 3000ft
5 / 8 km
1000 / 3000 ft
1500m / 5 km
500 / 1000 ft
800 / 1500m
200 / 500 ft
< 800m
< 200 ft
Simboli :   Temporali  Nebbia  Neve Forte  Precipitazioni Forti  Vento > 20 kt
SIGMETs :   Varie  Temporali  Ghiacco  Turbolenza  Onda orograficha  Ceneri Vulcaniche






- Altitudine del aeroporto : 659 ft
- Codice IATA : LGG


EBLG - Liège

ULTIMO METAR :
  • 280550Z 23010KT 9999 FEW028 M00/M01 Q1017 R22/290394 NOSIG

METARs OBSOLETI :
  • 280520Z 23009KT 9999 FEW028 M00/M02 Q1016 R22/591093 NOSIG
  • 280450Z 23007KT 9999 FEW028 01/M01 Q1016 R22/591093 NOSIG
  • 280420Z 23007KT CAVOK 01/M01 Q1016 R22/591093 NOSIG
  • 280350Z 24010KT 190V290 CAVOK 01/M01 Q1016 R22/591093 NOSIG
  • 280320Z 24010KT CAVOK 00/M01 Q1015 R22/591093 NOSIG

TAF TAF EBLG
Valido dal 28 a 06 ore il 29 a 12 ore UTC


280501Z 2806/2912 19008KT 9999 FEW020
BECMG 2814/2816 19018G28KT
TEMPO 2816/2820 4000 RA BKN011
TEMPO 2820/2902 4000 -RADZ BKN006
PROB30
TEMPO 2904/2907 BKN007
TEMPO 2911/2912 20020G38KT 3500 RA SHRA BKN012 SCT018CB



MetMap, La meteo Aeronautica in un colpo d'occhio ! - Copyright ORBIFLY Dicembre 2007 - Disclaimer

ORBIFLY MET'MAP TEAM :

Programmazione e sviluppo : Alexandra Zaïnal
Concezione : Baudouin d'Aumeries
Aiuto per la programmazione : Marc-Olivier Méhu
Supporto tecnico e logistico : Manuel Goepfert
Aiuto per la traduzione : Arnaldo La Scala

Contatto : metmap@orbifly.com




FONTI E CREDITI :

   NOAA